Oaktown, Indiana
Current Conditions -  °F | °C
As of 12:53 AM on Saturday 29 Nov 2014 (Local Time) from KLWV Reporting Station
Clear Clear  
Wind Chill: 29°   Ceiling: Unl
Heat Index: 36°   Visibility: 10mi
Dew Point: 29°   Wind: 9mph
Humidity: 76%   Direction: 180°S
Pressure: 29.98"   Gusts: NA
Location:  38.87°N, 87.44°W
Report Text: KLWV 290653Z AUTO 18008KT 10SM CLR 02/M02 A2998 RMK AO2 SLP155 T00221017
Loading
Personal Weather Stations






























Interactive Weather Map New forecast layout! Learn more

10-Day Weather Forecast

Advertisements
Track Severe Weather on mobile